Time;durP1;ratioP1;P1;durP2;ratioP2;P2;SDS_P1;SDS_P2;PMS_P1;PMS_P2;Temp;Humidity;BMP_temperature;BMP_pressure;BME280_temperature;BME280_humidity;BME280_pressure;Samples;Min_cycle;Max_cycle;Signal;HPM_P1;HPM_P2
2022/07/25 00:02:00;;;;;;;5.10;4.60;;;30.50;49.30;;;;;;6186706;23;20033;-75
2022/07/25 00:04:26;;;;;;;6.45;4.65;;;30.50;49.20;;;;;;6186211;23;20487;-68
2022/07/25 00:06:52;;;;;;;5.43;4.75;;;30.40;49.10;;;;;;6186384;23;20016;-68
2022/07/25 00:09:17;;;;;;;5.50;4.47;;;30.50;49.10;;;;;;6186256;23;20063;-68
2022/07/25 00:11:43;;;;;;;5.00;4.50;;;30.40;49.00;;;;;;6186382;23;20044;-68
2022/07/25 00:14:09;;;;;;;6.68;4.68;;;30.40;49.00;;;;;;6186580;23;20017;-68
2022/07/25 00:16:34;;;;;;;8.35;4.55;;;30.40;48.90;;;;;;6186001;23;20020;-68
2022/07/25 00:19:00;;;;;;;8.20;4.40;;;30.40;48.80;;;;;;6186280;23;19997;-68
2022/07/25 00:21:26;;;;;;;5.90;4.50;;;30.40;48.80;;;;;;6185730;23;20020;-68
2022/07/25 00:23:51;;;;;;;6.03;4.82;;;30.40;48.80;;;;;;6186066;23;20043;-68
2022/07/25 00:26:17;;;;;;;7.47;4.82;;;30.40;49.00;;;;;;6186309;23;20001;-68
2022/07/25 00:28:43;;;;;;;6.53;4.78;;;30.40;48.90;;;;;;6185980;23;20001;-68
2022/07/25 00:31:09;;;;;;;6.57;4.57;;;30.30;48.80;;;;;;6186372;23;20013;-68
2022/07/25 00:33:35;;;;;;;7.82;4.47;;;30.30;48.80;;;;;;6185573;23;20419;-68
2022/07/25 00:36:00;;;;;;;16.15;4.95;;;30.30;48.70;;;;;;6185905;23;20016;-68
2022/07/25 00:38:26;;;;;;;8.88;4.63;;;30.30;48.70;;;;;;6186044;23;20080;-71
2022/07/25 00:40:52;;;;;;;6.25;4.60;;;30.30;49.30;;;;;;6186363;23;20013;-75
2022/07/25 00:43:17;;;;;;;5.85;4.70;;;30.30;48.70;;;;;;6185882;23;19997;-68
2022/07/25 00:45:43;;;;;;;5.78;4.35;;;30.30;48.80;;;;;;6185607;23;20028;-68
2022/07/25 00:48:09;;;;;;;6.80;4.45;;;30.20;48.60;;;;;;6185766;23;20555;-68
2022/07/25 00:50:35;;;;;;;6.68;4.40;;;30.20;48.50;;;;;;6185987;23;20009;-75
2022/07/25 00:53:01;;;;;;;7.63;4.45;;;30.20;48.70;;;;;;6185932;23;20029;-75
2022/07/25 00:55:28;;;;;;;5.40;4.15;;;30.20;48.70;;;;;;6185816;23;20008;-68
2022/07/25 00:57:53;;;;;;;11.05;5.15;;;30.20;48.90;;;;;;6183650;23;20021;-68
2022/07/25 01:00:20;;;;;;;7.60;4.85;;;30.20;48.90;;;;;;6181804;23;20027;-68
2022/07/25 01:02:47;;;;;;;5.80;4.50;;;30.20;48.80;;;;;;6182471;23;20479;-69
2022/07/25 01:05:12;;;;;;;4.85;4.40;;;30.20;48.70;;;;;;6184396;23;20021;-73
2022/07/25 01:07:39;;;;;;;6.63;4.95;;;30.20;48.80;;;;;;6185476;23;20001;-68
2022/07/25 01:10:05;;;;;;;5.20;4.70;;;30.20;48.70;;;;;;6185001;23;20080;-68
2022/07/25 01:12:31;;;;;;;7.03;4.32;;;30.10;48.60;;;;;;6185133;23;20001;-68
2022/07/25 01:14:57;;;;;;;7.63;4.65;;;30.10;48.50;;;;;;6185532;23;20035;-67
2022/07/25 01:17:23;;;;;;;5.68;4.43;;;30.10;48.40;;;;;;6185376;23;20005;-68
2022/07/25 01:19:50;;;;;;;7.95;4.68;;;30.20;48.40;;;;;;6185524;23;20056;-68
2022/07/25 01:22:16;;;;;;;5.90;4.32;;;30.20;48.50;;;;;;6185333;23;20005;-68
2022/07/25 01:24:42;;;;;;;6.70;5.00;;;30.10;48.50;;;;;;6185759;23;20367;-73
2022/07/25 01:27:07;;;;;;;7.40;4.53;;;30.10;48.70;;;;;;6185381;23;20028;-68
2022/07/25 01:29:33;;;;;;;7.50;5.43;;;30.10;48.80;;;;;;6185190;23;20005;-69
2022/07/25 01:31:59;;;;;;;4.75;4.25;;;30.10;48.80;;;;;;6185192;23;20024;-68
2022/07/25 01:34:25;;;;;;;4.97;4.53;;;30.10;48.70;;;;;;6185709;23;20387;-68
2022/07/25 01:36:50;;;;;;;5.47;4.20;;;30.00;48.60;;;;;;6185285;23;20372;-68
2022/07/25 01:39:16;;;;;;;8.13;4.93;;;30.00;48.70;;;;;;6185538;23;20001;-68
2022/07/25 01:41:42;;;;;;;6.60;4.65;;;30.00;48.90;;;;;;6185318;23;20013;-68
2022/07/25 01:44:07;;;;;;;7.25;4.78;;;30.00;49.00;;;;;;6185002;23;20001;-68
2022/07/25 01:46:33;;;;;;;6.72;4.57;;;30.00;49.00;;;;;;6185508;23;20301;-68
2022/07/25 01:48:59;;;;;;;6.90;4.55;;;30.00;49.20;;;;;;6185259;23;20005;-68
2022/07/25 01:51:25;;;;;;;6.05;4.53;;;29.90;49.50;;;;;;6185176;23;20002;-75
2022/07/25 01:53:50;;;;;;;8.80;4.55;;;29.90;49.70;;;;;;6185273;23;20001;-68
2022/07/25 01:56:16;;;;;;;4.97;4.47;;;29.90;50.00;;;;;;6185666;23;20064;-68
2022/07/25 01:58:42;;;;;;;7.90;4.45;;;29.90;50.10;;;;;;6184968;23;20028;-68
2022/07/25 02:01:07;;;;;;;7.00;4.55;;;29.80;50.50;;;;;;6184997;23;20438;-68
2022/07/25 02:03:33;;;;;;;5.18;4.20;;;29.70;50.40;;;;;;6185374;23;20360;-68
2022/07/25 02:06:01;;;;;;;5.30;4.25;;;29.80;50.50;;;;;;6185364;23;20024;-68
2022/07/25 02:08:28;;;;;;;5.07;4.50;;;29.70;50.60;;;;;;6185626;23;20005;-68
2022/07/25 02:10:54;;;;;;;4.82;4.32;;;29.70;50.60;;;;;;6186474;23;20335;-68
2022/07/25 02:13:20;;;;;;;7.57;4.95;;;29.70;50.70;;;;;;6187190;23;20048;-75
2022/07/25 02:15:46;;;;;;;6.80;4.63;;;29.70;50.70;;;;;;6187209;23;20017;-74
2022/07/25 02:18:11;;;;;;;5.78;4.80;;;29.70;50.70;;;;;;6187089;23;20016;-68
2022/07/25 02:20:37;;;;;;;7.43;4.47;;;29.60;50.30;;;;;;6187208;23;20119;-68
2022/07/25 02:23:04;;;;;;;5.65;4.60;;;29.60;50.30;;;;;;6187430;23;20001;-68
2022/07/25 02:25:30;;;;;;;6.47;4.68;;;29.50;50.20;;;;;;6187563;23;20379;-68
2022/07/25 02:27:56;;;;;;;6.57;4.68;;;29.60;50.40;;;;;;6187167;23;20301;-68
2022/07/25 02:30:22;;;;;;;5.50;4.70;;;29.50;50.40;;;;;;6187192;23;20076;-67
2022/07/25 02:32:48;;;;;;;6.80;4.82;;;29.50;50.60;;;;;;6186931;23;20040;-68
2022/07/25 02:35:14;;;;;;;5.38;4.60;;;29.50;50.70;;;;;;6187318;23;20024;-68
2022/07/25 02:37:40;;;;;;;5.55;4.72;;;29.50;50.80;;;;;;6187507;23;20027;-67
2022/07/25 02:40:06;;;;;;;7.13;4.72;;;29.50;50.70;;;;;;6187244;23;20019;-75
2022/07/25 02:42:32;;;;;;;6.60;4.80;;;29.50;51.10;;;;;;6186950;23;20009;-68
2022/07/25 02:44:57;;;;;;;10.68;4.78;;;29.50;51.00;;;;;;6186901;23;20313;-68
2022/07/25 02:47:23;;;;;;;8.27;4.65;;;29.50;51.10;;;;;;6186989;23;19997;-68
2022/07/25 02:49:49;;;;;;;5.85;4.60;;;29.40;51.40;;;;;;6186880;23;20325;-68
2022/07/25 02:52:14;;;;;;;5.47;4.70;;;29.40;51.20;;;;;;6186766;23;20001;-75
2022/07/25 02:54:40;;;;;;;11.10;4.30;;;29.30;51.10;;;;;;6186753;23;20016;-68
2022/07/25 02:57:06;;;;;;;5.50;4.97;;;29.30;51.20;;;;;;6186727;23;20016;-74
2022/07/25 02:59:31;;;;;;;5.63;4.60;;;29.30;51.70;;;;;;6187012;23;20001;-68
2022/07/25 03:01:57;;;;;;;6.07;4.90;;;29.30;51.60;;;;;;6186816;23;20376;-68
2022/07/25 03:04:23;;;;;;;5.95;5.05;;;29.30;51.50;;;;;;6187083;23;20012;-68
2022/07/25 03:06:48;;;;;;;7.93;4.97;;;29.30;51.90;;;;;;6186817;23;20055;-68
2022/07/25 03:09:14;;;;;;;6.43;4.88;;;29.20;51.70;;;;;;6186905;23;20009;-68
2022/07/25 03:11:40;;;;;;;9.10;5.00;;;29.20;51.60;;;;;;6186536;23;20052;-68
2022/07/25 03:14:07;;;;;;;6.57;4.70;;;29.10;51.90;;;;;;6186558;23;20012;-74
2022/07/25 03:16:33;;;;;;;6.85;4.78;;;29.10;51.80;;;;;;6187050;23;20380;-75
2022/07/25 03:18:58;;;;;;;7.50;4.93;;;29.10;51.80;;;;;;6187185;23;20012;-68
2022/07/25 03:21:24;;;;;;;5.50;4.85;;;29.10;51.70;;;;;;6186488;23;20008;-67
2022/07/25 03:23:50;;;;;;;7.65;4.80;;;29.10;51.60;;;;;;6186596;23;20008;-68
2022/07/25 03:26:15;;;;;;;6.53;4.25;;;29.10;51.40;;;;;;6186730;23;20001;-67
2022/07/25 03:28:41;;;;;;;7.63;4.97;;;29.10;51.70;;;;;;6186916;23;20080;-72
2022/07/25 03:31:07;;;;;;;7.70;5.22;;;29.10;51.80;;;;;;6188039;23;20004;-68
2022/07/25 03:33:33;;;;;;;7.25;5.10;;;29.00;52.00;;;;;;6187086;23;20087;-69
2022/07/25 03:35:59;;;;;;;7.72;5.18;;;29.10;51.80;;;;;;6187321;23;20386;-75
2022/07/25 03:38:25;;;;;;;7.28;5.03;;;29.10;51.60;;;;;;6186358;23;20056;-75
2022/07/25 03:40:50;;;;;;;5.90;4.70;;;29.00;51.50;;;;;;6186174;23;20025;-75
2022/07/25 03:43:16;;;;;;;7.93;4.97;;;29.00;51.60;;;;;;6186406;23;20301;-68
2022/07/25 03:45:42;;;;;;;5.03;4.53;;;29.00;51.70;;;;;;6186444;23;20009;-74
2022/07/25 03:48:08;;;;;;;5.32;4.80;;;29.00;51.80;;;;;;6186542;23;20041;-68
2022/07/25 03:50:33;;;;;;;10.15;5.13;;;28.90;52.10;;;;;;6186432;23;20001;-68
2022/07/25 03:52:59;;;;;;;5.50;4.75;;;28.90;52.10;;;;;;6186898;23;20013;-68
2022/07/25 03:55:25;;;;;;;5.43;4.20;;;28.80;52.00;;;;;;6185954;23;20432;-67
2022/07/25 03:57:50;;;;;;;6.75;4.95;;;28.80;52.30;;;;;;6186268;23;20024;-74
2022/07/25 04:00:16;;;;;;;11.30;5.03;;;28.80;52.70;;;;;;6186249;23;20380;-71
2022/07/25 04:02:42;;;;;;;6.07;4.97;;;28.80;53.00;;;;;;6186283;23;20008;-68
2022/07/25 04:05:08;;;;;;;7.95;5.03;;;28.80;53.20;;;;;;6186112;23;20439;-68
2022/07/25 04:07:35;;;;;;;7.72;4.75;;;28.80;53.10;;;;;;6186021;23;19997;-68
2022/07/25 04:10:01;;;;;;;6.22;4.90;;;28.80;53.30;;;;;;6186025;23;20072;-75
2022/07/25 04:12:27;;;;;;;4.97;4.47;;;28.80;53.10;;;;;;6185969;23;20059;-74
2022/07/25 04:14:52;;;;;;;7.75;5.35;;;28.80;53.20;;;;;;6186103;23;20060;-70
2022/07/25 04:17:18;;;;;;;8.60;4.88;;;28.80;53.20;;;;;;6186164;23;20005;-68
2022/07/25 04:19:44;;;;;;;6.35;5.13;;;28.80;53.30;;;;;;6186479;23;20013;-68
2022/07/25 04:22:10;;;;;;;8.70;5.15;;;28.80;53.60;;;;;;6186285;23;20009;-68
2022/07/25 04:24:36;;;;;;;8.73;4.80;;;28.70;53.60;;;;;;6185858;23;20060;-68
2022/07/25 04:27:02;;;;;;;5.90;5.03;;;28.70;53.70;;;;;;6186220;23;20005;-73
2022/07/25 04:29:28;;;;;;;9.82;5.30;;;28.60;53.70;;;;;;6185887;23;20321;-68
2022/07/25 04:31:53;;;;;;;9.05;4.43;;;28.60;54.10;;;;;;6185676;23;20408;-68
2022/07/25 04:34:19;;;;;;;9.30;5.22;;;28.50;54.30;;;;;;6185050;23;20041;-68
2022/07/25 04:36:45;;;;;;;6.70;5.30;;;28.60;54.40;;;;;;6185275;23;20039;-73
2022/07/25 04:39:10;;;;;;;8.43;5.15;;;28.50;54.50;;;;;;6186223;23;20005;-73
2022/07/25 04:41:36;;;;;;;10.10;5.35;;;28.60;55.20;;;;;;6185582;23;20008;-68
2022/07/25 04:44:02;;;;;;;8.57;5.10;;;28.50;55.20;;;;;;6185826;23;20005;-68
2022/07/25 04:46:28;;;;;;;6.22;4.70;;;28.60;55.40;;;;;;6186204;23;20017;-72
2022/07/25 04:48:53;;;;;;;8.27;5.05;;;28.60;55.10;;;;;;6185826;23;20339;-69
2022/07/25 04:51:19;;;;;;;12.02;5.00;;;28.60;55.20;;;;;;6185818;23;20443;-73
2022/07/25 04:53:45;;;;;;;7.07;5.00;;;28.60;55.10;;;;;;6185365;23;20009;-68
2022/07/25 04:56:11;;;;;;;6.35;4.55;;;28.70;55.10;;;;;;6185526;23;20013;-72
2022/07/25 04:58:37;;;;;;;6.97;5.30;;;28.70;54.70;;;;;;6185526;23;20019;-72
2022/07/25 05:01:02;;;;;;;7.85;4.85;;;28.70;54.60;;;;;;6185944;23;20037;-68
2022/07/25 05:03:28;;;;;;;6.75;5.30;;;28.70;54.40;;;;;;6185558;23;20458;-68
2022/07/25 05:05:54;;;;;;;8.52;5.00;;;28.80;54.30;;;;;;6185973;23;20059;-68
2022/07/25 05:08:20;;;;;;;5.57;4.90;;;28.80;54.20;;;;;;6185665;23;20313;-68
2022/07/25 05:10:45;;;;;;;7.05;5.25;;;28.80;54.20;;;;;;6185490;23;20000;-68
2022/07/25 05:13:11;;;;;;;10.20;5.22;;;28.90;54.10;;;;;;6185535;23;20004;-68
2022/07/25 05:15:37;;;;;;;5.60;5.03;;;28.90;53.90;;;;;;6185354;23;20017;-68
2022/07/25 05:18:02;;;;;;;9.25;5.50;;;28.90;53.70;;;;;;6186001;23;20420;-68
2022/07/25 05:20:28;;;;;;;5.82;4.95;;;29.00;53.20;;;;;;6185685;23;20083;-68
2022/07/25 05:22:54;;;;;;;7.80;4.85;;;29.00;52.70;;;;;;6185558;23;20016;-68
2022/07/25 05:25:20;;;;;;;10.00;4.47;;;29.10;52.30;;;;;;6185956;23;20068;-68
2022/07/25 05:27:46;;;;;;;5.78;5.28;;;29.10;52.10;;;;;;6185411;23;20076;-68
2022/07/25 05:30:13;;;;;;;6.97;5.10;;;29.10;51.70;;;;;;6185814;23;20462;-68
2022/07/25 05:32:39;;;;;;;6.90;4.55;;;29.20;51.40;;;;;;6185831;23;20001;-68
2022/07/25 05:35:06;;;;;;;4.95;4.25;;;29.20;51.10;;;;;;6185298;23;20040;-68
2022/07/25 05:37:33;;;;;;;6.55;4.25;;;29.30;50.50;;;;;;6185433;23;20005;-68
2022/07/25 05:39:59;;;;;;;6.72;4.82;;;29.30;50.10;;;;;;6185531;23;20100;-70
2022/07/25 05:42:25;;;;;;;5.90;4.07;;;29.30;49.70;;;;;;6185494;23;20033;-75
2022/07/25 05:44:51;;;;;;;5.47;4.22;;;29.40;49.60;;;;;;6185198;23;20005;-68
2022/07/25 05:47:16;;;;;;;7.88;4.53;;;29.40;49.50;;;;;;6185418;23;20065;-68
2022/07/25 05:49:42;;;;;;;5.15;4.50;;;29.40;49.40;;;;;;6185186;23;20025;-69
2022/07/25 05:52:08;;;;;;;7.88;4.68;;;29.40;49.40;;;;;;6185064;23;20480;-68
2022/07/25 05:54:34;;;;;;;8.70;5.00;;;29.50;49.70;;;;;;6184958;23;20021;-68
2022/07/25 05:57:00;;;;;;;7.57;4.70;;;29.50;49.90;;;;;;6184491;23;20009;-75
2022/07/25 05:59:26;;;;;;;9.77;4.95;;;29.50;49.90;;;;;;6185045;23;20005;-68
2022/07/25 06:01:52;;;;;;;7.28;4.40;;;29.60;50.00;;;;;;6185413;23;20005;-68
2022/07/25 06:04:18;;;;;;;8.88;4.57;;;29.60;50.10;;;;;;6185594;23;20005;-68
2022/07/25 06:06:49;;;;;;;6.47;4.32;;;29.70;50.20;;;;;;6185075;23;20332;-68
2022/07/25 06:09:18;;;;;;;7.50;4.57;;;29.70;50.20;;;;;;6184308;23;19997;-68
2022/07/25 06:11:44;;;;;;;7.22;4.65;;;29.70;50.10;;;;;;6184118;23;20028;-68
2022/07/25 06:14:09;;;;;;;9.15;4.70;;;29.70;50.00;;;;;;6185191;23;20433;-68
2022/07/25 06:16:35;;;;;;;6.63;4.07;;;29.80;49.50;;;;;;6185137;23;20032;-68
2022/07/25 06:19:01;;;;;;;4.55;4.10;;;29.80;49.00;;;;;;6185028;23;19997;-68
2022/07/25 06:21:26;;;;;;;8.13;4.70;;;29.90;48.90;;;;;;6185044;23;20012;-67
2022/07/25 06:23:52;;;;;;;5.65;4.72;;;29.90;48.60;;;;;;6185530;23;20009;-67
2022/07/25 06:26:18;;;;;;;6.25;4.63;;;30.00;48.30;;;;;;6185083;23;20001;-68
2022/07/25 06:28:43;;;;;;;7.50;4.10;;;30.00;47.90;;;;;;6184780;23;20009;-68
2022/07/25 06:31:09;;;;;;;8.98;4.38;;;30.00;47.90;;;;;;6184523;23;20343;-68
2022/07/25 06:33:35;;;;;;;6.03;4.43;;;30.00;47.70;;;;;;6184219;23;20001;-67
2022/07/25 06:36:01;;;;;;;7.32;4.28;;;30.10;47.70;;;;;;6184636;23;20095;-68
2022/07/25 06:38:26;;;;;;;11.68;4.60;;;30.10;47.70;;;;;;6185382;23;20023;-67
2022/07/25 06:40:52;;;;;;;5.90;4.25;;;30.20;47.70;;;;;;6185389;23;20063;-68
2022/07/25 06:43:18;;;;;;;6.45;4.68;;;30.20;47.70;;;;;;6184874;23;20004;-68
2022/07/25 06:45:46;;;;;;;5.70;4.43;;;30.20;47.60;;;;;;6184757;23;20076;-75
2022/07/25 06:48:13;;;;;;;7.07;4.55;;;30.30;47.70;;;;;;6185359;23;20084;-74
2022/07/25 06:50:39;;;;;;;5.97;4.28;;;30.30;47.60;;;;;;6185829;23;20013;-68
2022/07/25 06:53:04;;;;;;;5.78;4.15;;;30.30;47.30;;;;;;6185214;23;20072;-68
2022/07/25 06:55:30;;;;;;;7.32;4.63;;;30.40;47.10;;;;;;6184667;23;20067;-68
2022/07/25 06:57:56;;;;;;;7.55;4.38;;;30.50;47.60;;;;;;6185871;23;20017;-68
2022/07/25 07:00:22;;;;;;;5.22;4.43;;;30.50;46.60;;;;;;6187005;23;20005;-68
2022/07/25 07:02:55;;;;;;;8.40;4.80;;;30.60;46.40;;;;;;6187101;23;20055;-67
2022/07/25 07:05:25;;;;;;;8.90;4.15;;;30.60;46.50;;;;;;6187320;23;20020;-68
2022/07/25 07:07:52;;;;;;;5.20;4.68;;;30.60;46.40;;;;;;6187139;23;20001;-68
2022/07/25 07:10:19;;;;;;;5.15;4.32;;;30.70;46.30;;;;;;6186773;23;20009;-68
2022/07/25 07:12:45;;;;;;;5.68;4.20;;;30.70;46.50;;;;;;6187345;23;20009;-76
2022/07/25 07:15:11;;;;;;;6.25;4.80;;;30.70;46.70;;;;;;6186744;23;20428;-75
2022/07/25 07:17:37;;;;;;;4.38;3.95;;;30.80;46.90;;;;;;6186607;23;19997;-76
2022/07/25 07:20:04;;;;;;;6.35;4.72;;;30.80;47.40;;;;;;6186778;23;20004;-68
2022/07/25 07:22:30;;;;;;;7.20;4.47;;;30.90;47.60;;;;;;6186686;23;20005;-68
2022/07/25 07:24:56;;;;;;;7.15;4.57;;;30.90;47.50;;;;;;6186940;23;19997;-75
2022/07/25 07:27:24;;;;;;;5.53;4.07;;;31.00;47.60;;;;;;6187205;23;20013;-69
2022/07/25 07:29:50;;;;;;;7.40;3.95;;;31.10;47.50;;;;;;6186900;23;20021;-68
2022/07/25 07:32:16;;;;;;;8.13;4.68;;;31.10;47.80;;;;;;6186488;23;20016;-75
2022/07/25 07:34:41;;;;;;;7.78;4.10;;;31.20;47.30;;;;;;6186869;23;20009;-75
2022/07/25 07:37:07;;;;;;;6.55;4.10;;;31.20;47.10;;;;;;6186855;23;20487;-68
2022/07/25 07:39:33;;;;;;;9.13;4.75;;;31.30;46.90;;;;;;6186245;23;20051;-67
2022/07/25 07:41:58;;;;;;;6.00;4.28;;;31.40;47.00;;;;;;6186569;23;20001;-68
2022/07/25 07:44:24;;;;;;;5.47;4.22;;;31.40;47.00;;;;;;6186295;23;20439;-72
2022/07/25 07:46:50;;;;;;;6.78;4.13;;;31.40;46.70;;;;;;6186587;23;20076;-75
2022/07/25 07:49:15;;;;;;;5.93;4.20;;;31.50;46.80;;;;;;6187332;23;20016;-67
2022/07/25 07:51:41;;;;;;;5.10;4.55;;;31.50;46.20;;;;;;6186086;23;20001;-68
2022/07/25 07:56:51;;;;;;;5.85;4.45;;;31.60;45.60;;;;;;6187207;23;20392;-75
2022/07/25 07:59:17;;;;;;;5.90;4.65;;;31.60;45.40;;;;;;6186463;23;20005;-76
2022/07/25 08:01:42;;;;;;;5.55;4.32;;;31.70;45.30;;;;;;6186503;23;20028;-68
2022/07/25 08:04:08;;;;;;;5.05;3.88;;;31.70;45.20;;;;;;6186141;23;20365;-68
2022/07/25 08:06:34;;;;;;;4.55;4.15;;;31.80;45.20;;;;;;6186572;23;20005;-68
2022/07/25 08:08:59;;;;;;;5.78;4.43;;;31.80;45.10;;;;;;6185795;23;20012;-67
2022/07/25 08:11:25;;;;;;;8.10;4.20;;;31.90;45.00;;;;;;6186258;23;20001;-68
2022/07/25 08:13:51;;;;;;;7.22;4.20;;;31.90;44.30;;;;;;6186237;23;20028;-75
2022/07/25 08:16:17;;;;;;;6.65;4.20;;;31.90;44.50;;;;;;6186426;23;20322;-75
2022/07/25 08:18:43;;;;;;;8.43;4.40;;;32.00;44.50;;;;;;6186167;23;20036;-68
2022/07/25 08:21:09;;;;;;;8.40;4.10;;;32.00;44.40;;;;;;6186308;23;20012;-73
2022/07/25 08:23:37;;;;;;;7.97;4.65;;;32.10;44.40;;;;;;6186097;23;20005;-75
2022/07/25 08:26:04;;;;;;;6.00;4.10;;;32.20;44.40;;;;;;6185884;23;20051;-74
2022/07/25 08:28:30;;;;;;;6.07;4.63;;;32.20;44.20;;;;;;6186250;23;20001;-74
2022/07/25 08:30:57;;;;;;;6.22;4.00;;;32.30;43.90;;;;;;6185920;23;20028;-68
2022/07/25 08:33:24;;;;;;;5.43;4.25;;;32.40;43.90;;;;;;6186257;23;20015;-68
2022/07/25 08:35:52;;;;;;;5.40;4.53;;;32.40;43.80;;;;;;6185759;23;20020;-68
2022/07/25 08:38:18;;;;;;;5.93;4.40;;;32.50;43.50;;;;;;6186367;23;20376;-68
2022/07/25 08:40:44;;;;;;;5.38;4.43;;;32.50;43.30;;;;;;6185872;23;20044;-68
2022/07/25 08:43:12;;;;;;;5.93;4.40;;;32.60;43.30;;;;;;6186049;23;20004;-68
2022/07/25 08:45:47;;;;;;;9.38;4.50;;;32.60;43.80;;;;;;6186033;23;20036;-75
2022/07/25 08:48:16;;;;;;;7.43;4.35;;;32.70;43.30;;;;;;6186346;23;20004;-75
2022/07/25 08:50:42;;;;;;;5.05;4.45;;;32.70;43.20;;;;;;6186003;23;20005;-68
2022/07/25 08:53:08;;;;;;;4.63;4.10;;;32.70;43.10;;;;;;6185879;23;20064;-68
2022/07/25 08:55:34;;;;;;;8.93;4.82;;;32.80;43.20;;;;;;6185659;23;20380;-76
2022/07/25 08:57:59;;;;;;;5.65;4.28;;;32.90;43.10;;;;;;6185850;23;20352;-74
2022/07/25 09:00:29;;;;;;;6.70;4.57;;;32.90;42.90;;;;;;6186251;23;20072;-68
2022/07/25 09:03:00;;;;;;;9.07;4.45;;;33.00;42.80;;;;;;6185822;23;19997;-68
2022/07/25 09:05:27;;;;;;;7.83;4.50;;;33.00;42.70;;;;;;6185774;23;20084;-68
2022/07/25 09:07:55;;;;;;;6.60;4.20;;;33.10;42.70;;;;;;6185840;23;20224;-67
2022/07/25 09:10:25;;;;;;;10.15;4.38;;;33.10;42.60;;;;;;6186073;23;20041;-68
2022/07/25 09:13:02;;;;;;;7.53;4.18;;;33.20;42.50;;;;;;6185741;23;20479;-68
2022/07/25 09:15:38;;;;;;;6.20;4.60;;;33.20;42.60;;;;;;6185502;23;20043;-68
2022/07/25 09:18:16;;;;;;;7.22;4.40;;;33.30;42.70;;;;;;6185968;23;20088;-67
2022/07/25 09:20:46;;;;;;;7.85;3.90;;;33.40;42.40;;;;;;6185035;23;20412;-68
2022/07/25 09:23:28;;;;;;;5.30;4.40;;;33.40;42.30;;;;;;6185765;23;20001;-68
2022/07/25 09:26:04;;;;;;;6.88;4.30;;;33.50;42.20;;;;;;6185652;23;20016;-68
2022/07/25 09:28:29;;;;;;;7.55;4.38;;;33.60;42.10;;;;;;6185354;23;20012;-68
2022/07/25 09:31:00;;;;;;;7.40;5.10;;;33.60;41.60;;;;;;6185403;23;19997;-68
2022/07/25 09:33:27;;;;;;;9.25;4.32;;;33.70;41.50;;;;;;6185602;23;20005;-71
2022/07/25 09:35:54;;;;;;;6.63;4.75;;;33.70;41.60;;;;;;6185454;23;20017;-75
2022/07/25 09:38:21;;;;;;;5.93;4.80;;;33.80;41.50;;;;;;6185633;23;19997;-75
2022/07/25 09:40:55;;;;;;;6.82;4.45;;;33.80;41.30;;;;;;6185580;23;20051;-68
2022/07/25 09:43:22;;;;;;;5.53;4.93;;;33.90;41.00;;;;;;6185441;23;20088;-68
2022/07/25 09:45:50;;;;;;;7.95;4.65;;;34.00;40.70;;;;;;6185860;23;20020;-68
2022/07/25 09:48:18;;;;;;;4.78;4.32;;;34.00;40.70;;;;;;6185576;23;20332;-68
2022/07/25 09:50:44;;;;;;;6.72;4.60;;;34.10;40.80;;;;;;6185155;23;20432;-68
2022/07/25 09:53:11;;;;;;;11.00;5.07;;;34.10;40.60;;;;;;6185539;23;20009;-68
2022/07/25 09:55:36;;;;;;;8.98;5.45;;;34.10;40.40;;;;;;6185592;23;20024;-67
2022/07/25 09:58:03;;;;;;;8.30;4.30;;;34.20;40.30;;;;;;6185042;23;20025;-68
2022/07/25 10:00:30;;;;;;;8.00;4.70;;;34.30;40.50;;;;;;6185282;23;20119;-68
2022/07/25 10:03:11;;;;;;;15.93;5.05;;;34.30;40.30;;;;;;6185629;23;20016;-68
2022/07/25 10:05:57;;;;;;;9.32;4.80;;;34.30;40.40;;;;;;6185169;23;20036;-68
2022/07/25 10:08:23;;;;;;;8.73;4.50;;;34.40;40.20;;;;;;6174256;23;20013;-68
2022/07/25 10:10:49;;;;;;;10.32;5.00;;;34.50;40.00;;;;;;6185586;23;20136;-68
2022/07/25 10:13:27;;;;;;;4.78;4.10;;;34.60;40.00;;;;;;6185426;23;20021;-68
2022/07/25 10:15:53;;;;;;;5.45;4.53;;;34.60;39.90;;;;;;6185053;23;20088;-68
2022/07/25 10:18:21;;;;;;;8.60;4.53;;;34.60;39.40;;;;;;6185509;23;20001;-68
2022/07/25 10:20:49;;;;;;;6.82;4.60;;;34.70;39.40;;;;;;6185414;23;20013;-67
2022/07/25 10:23:20;;;;;;;7.28;4.50;;;34.70;39.50;;;;;;6185534;23;20006;-77
2022/07/25 10:25:46;;;;;;;5.13;4.63;;;34.70;39.50;;;;;;6185241;23;20024;-78
2022/07/25 10:28:18;;;;;;;7.05;4.65;;;34.70;39.20;;;;;;6185408;23;20005;-73
2022/07/25 10:30:44;;;;;;;9.68;4.90;;;34.80;38.90;;;;;;6185501;23;20072;-76
2022/07/25 10:33:20;;;;;;;5.03;4.30;;;34.90;38.80;;;;;;6187589;23;20056;-69
2022/07/25 10:35:46;;;;;;;5.38;4.80;;;34.90;38.50;;;;;;6187117;23;20039;-68
2022/07/25 10:38:12;;;;;;;9.93;5.43;;;34.90;38.60;;;;;;6187557;23;20009;-77
2022/07/25 10:40:43;;;;;;;7.70;4.60;;;34.90;38.40;;;;;;6187444;23;20434;-68
2022/07/25 10:43:19;;;;;;;8.10;4.85;;;34.90;38.60;;;;;;6186813;23;20492;-68
2022/07/25 10:45:51;;;;;;;5.75;4.55;;;34.90;38.70;;;;;;6187169;23;20001;-68
2022/07/25 10:48:25;;;;;;;5.53;4.70;;;35.00;39.00;;;;;;6187408;23;20005;-74
2022/07/25 10:51:00;;;;;;;6.45;4.50;;;35.00;38.80;;;;;;6187412;23;20327;-68
2022/07/25 10:53:33;;;;;;;8.52;4.72;;;35.10;38.60;;;;;;6187196;23;20005;-68
2022/07/25 10:56:28;;;;;;;9.68;4.75;;;35.20;38.50;;;;;;6186839;23;20016;-68
2022/07/25 10:58:57;;;;;;;11.60;4.65;;;35.20;38.50;;;;;;6182070;23;20129;-69
2022/07/25 11:01:30;;;;;;;6.53;4.57;;;35.30;38.60;;;;;;6187002;23;20033;-68
2022/07/25 11:04:02;;;;;;;8.65;4.75;;;35.30;38.80;;;;;;6186795;23;20040;-68
2022/07/25 11:06:40;;;;;;;7.95;4.55;;;35.40;39.00;;;;;;6186950;23;20001;-68
2022/07/25 11:09:20;;;;;;;8.90;4.82;;;35.40;38.40;;;;;;6187204;23;20009;-77
2022/07/25 11:11:48;;;;;;;6.27;4.53;;;35.50;38.20;;;;;;6186966;23;20039;-68
2022/07/25 11:14:15;;;;;;;6.55;4.57;;;35.50;38.40;;;;;;6186558;23;20239;-75
2022/07/25 11:16:41;;;;;;;6.70;4.95;;;35.60;38.60;;;;;;6186710;23;20108;-68
2022/07/25 11:19:25;;;;;;;7.78;4.78;;;35.60;38.70;;;;;;6186654;23;20338;-67
2022/07/25 11:21:54;;;;;;;6.28;4.45;;;35.60;39.00;;;;;;6186648;23;20005;-68
2022/07/25 11:24:21;;;;;;;8.85;4.53;;;35.70;38.30;;;;;;6187081;23;20005;-68
2022/07/25 11:26:51;;;;;;;9.63;4.40;;;35.70;38.20;;;;;;6186576;23;20392;-68
2022/07/25 11:29:26;;;;;;;6.55;4.78;;;35.80;38.30;;;;;;6186704;23;20005;-67
2022/07/25 11:31:53;;;;;;;9.57;4.78;;;35.80;38.30;;;;;;6186862;23;20009;-68
2022/07/25 11:34:28;;;;;;;6.53;4.35;;;35.80;38.10;;;;;;6186563;23;19997;-68
2022/07/25 11:36:56;;;;;;;9.63;4.30;;;35.90;37.90;;;;;;6186447;23;20008;-74
2022/07/25 11:39:30;;;;;;;8.85;4.82;;;35.90;37.90;;;;;;6186974;23;20001;-76
2022/07/25 11:42:00;;;;;;;12.70;4.72;;;35.90;38.10;;;;;;6186832;23;20378;-68
2022/07/25 11:44:39;;;;;;;8.75;5.00;;;36.00;38.00;;;;;;6186689;23;20328;-67
2022/07/25 11:47:07;;;;;;;8.75;4.57;;;35.90;37.50;;;;;;6186529;23;20001;-68
2022/07/25 11:49:46;;;;;;;8.50;4.57;;;35.90;37.50;;;;;;6186680;23;20005;-68
2022/07/25 11:52:35;;;;;;;7.13;4.30;;;35.90;37.50;;;;;;6186793;23;20013;-69
2022/07/25 11:55:03;;;;;;;8.60;4.30;;;35.90;37.70;;;;;;6186500;23;20087;-68
2022/07/25 11:57:34;;;;;;;12.63;5.28;;;36.00;37.80;;;;;;6185995;23;20488;-68
2022/07/25 12:00:02;;;;;;;9.85;4.53;;;35.90;37.60;;;;;;6186422;23;20001;-69
2022/07/25 12:02:33;;;;;;;6.50;4.60;;;36.00;37.80;;;;;;6186870;23;20087;-77
2022/07/25 12:05:00;;;;;;;;;;;36.00;37.60;;;;;;6187132;23;20013;-69
2022/07/25 12:07:45;;;;;;;7.30;4.53;;;36.00;37.60;;;;;;6186462;23;19900;-68
2022/07/25 12:10:33;;;;;;;6.10;4.10;;;36.00;37.80;;;;;;6186304;23;20421;-68
2022/07/25 12:13:06;;;;;;;9.32;4.50;;;36.00;37.90;;;;;;6186557;23;20327;-77
2022/07/25 12:15:36;;;;;;;7.03;4.53;;;36.00;38.00;;;;;;6186071;23;20021;-69
2022/07/25 12:18:02;;;;;;;6.18;4.47;;;36.00;38.20;;;;;;6186359;23;20008;-68
2022/07/25 12:20:33;;;;;;;11.10;5.10;;;36.00;37.90;;;;;;6186321;23;20384;-68
2022/07/25 12:23:05;;;;;;;12.00;4.90;;;36.10;37.80;;;;;;6186337;23;20072;-76
2022/07/25 12:25:32;;;;;;;8.50;4.90;;;36.10;38.00;;;;;;6186398;23;20016;-75
2022/07/25 12:27:59;;;;;;;6.35;5.03;;;36.10;38.10;;;;;;6185955;23;20124;-68
2022/07/25 12:30:26;;;;;;;5.93;4.40;;;36.10;38.10;;;;;;6186474;23;20436;-68
2022/07/25 12:32:52;;;;;;;7.47;4.80;;;36.20;38.10;;;;;;6186369;23;20084;-77
2022/07/25 12:35:18;;;;;;;8.60;4.82;;;36.20;38.20;;;;;;6186203;23;20036;-77
2022/07/25 12:37:44;;;;;;;5.43;4.47;;;36.30;37.90;;;;;;6186008;23;20004;-68
2022/07/25 12:40:11;;;;;;;11.90;5.85;;;36.30;37.80;;;;;;6186113;23;20039;-68
2022/07/25 12:42:37;;;;;;;8.07;4.90;;;36.30;38.20;;;;;;6186037;23;20512;-68
2022/07/25 12:45:04;;;;;;;5.60;4.53;;;36.30;38.40;;;;;;6186316;23;20020;-68
2022/07/25 12:47:29;;;;;;;6.07;4.40;;;36.30;38.50;;;;;;6185570;23;20041;-68
2022/07/25 12:49:55;;;;;;;7.97;4.60;;;36.40;38.10;;;;;;6185960;23;20060;-68